Terminal Aerodrome Forecast
Issued by NWS Missoula, MT

Home | Current Version | Previous Version | Text Only | Print | Product List | Glossary On
Versions: 1 2 3 4 5 6 7 8 9 10 11 12 13 14 15 16 17
000
FTUS45 KMSO 062335
TAFBTM
TAF
KBTM 062335Z 0700/0724 03012G20KT P6SM VCSH BKN080
     FM070400 04012G20KT P6SM -SHRA BKN050
     FM070900 07012G20KT 5SM -SHRASN OVC030
     FM071800 12012KT P6SM VCSH BKN050=

USA.gov is the U.S. government's official web portal to all federal, state and local government web resources and services.